Time;durP1;ratioP1;P1;durP2;ratioP2;P2;SDS_P1;SDS_P2;PMS_P1;PMS_P2;Temp;Humidity;BMP_temperature;BMP_pressure;BME280_temperature;BME280_humidity;BME280_pressure;Samples;Min_cycle;Max_cycle;Signal;HPM_P1;HPM_P2
2023/05/21 00:17:18;;;;;;;20.80;15.30;;;;;;;12.66;73.80;99195.13;435367;1252;110478;-42
2023/05/21 00:27:22;;;;;;;25.80;16.10;;;;;;;12.45;74.32;99194.68;435047;1253;107791;-42
2023/05/21 00:37:28;;;;;;;25.40;15.90;;;;;;;12.46;74.89;99190.39;435255;1250;101511;-41
2023/05/21 00:47:32;;;;;;;21.80;16.70;;;;;;;12.38;75.10;99189.83;435416;1253;108797;-42
2023/05/21 00:57:37;;;;;;;23.50;18.10;;;;;;;12.10;75.33;99189.22;435198;1250;97992;-42
2023/05/21 01:07:42;;;;;;;25.20;19.50;;;;;;;11.88;75.91;99182.52;435364;1250;112138;-42
2023/05/21 01:17:50;;;;;;;25.40;19.40;;;;;;;12.23;77.04;99163.83;435299;1249;108232;-41
2023/05/21 01:27:54;;;;;;;26.30;19.90;;;;;;;12.71;77.67;99151.63;436093;1247;99244;-41
2023/05/21 01:38:11;;;;;;;21.20;17.40;;;;;;;13.04;78.01;99144.78;435374;1252;107875;-42
2023/05/21 01:48:16;;;;;;;22.10;16.20;;;;;;;13.32;78.13;99135.04;435338;1253;99172;-41
2023/05/21 01:58:21;;;;;;;22.50;16.20;;;;;;;13.48;78.25;99127.27;435146;1256;110343;-42
2023/05/21 02:08:26;;;;;;;22.00;16.00;;;;;;;13.59;78.50;99116.44;435258;1250;107688;-41
2023/05/21 02:18:29;;;;;;;18.60;15.60;;;;;;;13.60;78.76;99111.14;435340;1253;98024;-41
2023/05/21 02:38:39;;;;;;;19.30;14.60;;;;;;;13.57;78.94;99107.11;435330;1254;97941;-41
2023/05/21 02:48:43;;;;;;;20.00;14.00;;;;;;;13.57;79.23;99105.67;435377;1253;111563;-42
2023/05/21 02:58:46;;;;;;;20.90;13.40;;;;;;;13.58;79.18;99094.00;435179;1252;107507;-41
2023/05/21 03:08:50;;;;;;;20.70;13.10;;;;;;;13.64;79.10;99086.50;435370;1256;99351;-44
2023/05/21 03:18:53;;;;;;;20.90;15.90;;;;;;;13.66;79.15;99083.28;435323;1256;108158;-41
2023/05/21 03:28:57;;;;;;;18.20;12.30;;;;;;;13.84;78.93;99085.77;435505;1253;99244;-41
2023/05/21 03:39:02;;;;;;;15.80;11.70;;;;;;;14.84;78.32;99087.89;435306;1253;111727;-42
2023/05/21 03:49:09;;;;;;;14.90;12.40;;;;;;;15.76;77.28;99082.20;435016;1250;419739;-43
2023/05/21 03:59:13;;;;;;;13.80;11.60;;;;;;;16.32;76.09;99083.35;435355;1253;98040;-42
2023/05/21 04:09:17;;;;;;;13.80;11.70;;;;;;;16.83;75.25;99087.59;435180;1253;109466;-41
2023/05/21 04:19:21;;;;;;;13.30;10.20;;;;;;;17.72;73.82;99078.88;435441;1250;99240;-43
2023/05/21 04:29:28;;;;;;;11.00;9.60;;;;;;;18.83;71.99;99076.63;435469;1252;111256;-43
2023/05/21 04:39:33;;;;;;;11.70;9.60;;;;;;;19.42;69.71;99077.14;435366;1253;107555;-43
2023/05/21 04:49:37;;;;;;;9.90;8.80;;;;;;;19.45;67.35;99071.61;435271;1254;98649;-43
2023/05/21 04:59:42;;;;;;;13.70;9.70;;;;;;;19.37;65.89;99078.46;435156;1254;107622;-42
2023/05/21 05:09:46;;;;;;;10.30;8.30;;;;;;;19.58;64.48;99078.04;435316;1252;99198;-45
2023/05/21 05:19:50;;;;;;;9.40;8.10;;;;;;;19.65;63.90;99073.34;435299;1251;112925;-43
2023/05/21 05:29:53;;;;;;;9.50;7.50;;;;;;;19.44;62.67;99073.29;435218;1263;108272;-42
2023/05/21 05:39:57;;;;;;;8.30;7.40;;;;;;;19.53;61.41;99069.00;435317;1253;99883;-42
2023/05/21 05:50:01;;;;;;;9.90;6.80;;;;;;;20.08;61.45;99060.14;435286;1253;108260;-41
2023/05/21 06:00:09;;;;;;;9.10;7.00;;;;;;;20.47;59.60;99055.25;435321;1261;99218;-41
2023/05/21 06:10:16;;;;;;;9.40;7.20;;;;;;;20.89;59.49;99050.08;435411;1262;110469;-44
2023/05/21 06:20:23;;;;;;;10.60;6.50;;;;;;;21.72;58.84;99052.39;435355;1253;109084;-43
2023/05/21 06:30:26;;;;;;;;;;;;;;;21.70;56.74;99057.98;435452;1254;97965;-42
2023/05/21 06:40:30;;;;;;;11.90;6.40;;;;;;;21.84;56.71;99055.00;435336;1251;108105;-42
2023/05/21 06:50:34;;;;;;;13.10;7.40;;;;;;;22.48;55.58;99052.88;435419;1253;98341;-42
2023/05/21 07:00:38;;;;;;;9.90;6.30;;;;;;;22.68;54.81;99053.55;435337;1250;110712;-41
2023/05/21 07:10:42;;;;;;;13.20;6.60;;;;;;;22.53;54.35;99057.98;435425;1264;108262;-42
2023/05/21 07:20:46;;;;;;;6.70;5.10;;;;;;;22.38;53.05;99053.83;435430;1250;99971;-40
2023/05/21 07:30:50;;;;;;;7.20;5.50;;;;;;;22.71;53.63;99047.02;435364;1251;109604;-42
2023/05/21 08:01:06;;;;;;;12.80;5.00;;;;;;;22.40;52.80;99041.07;435280;1251;107886;-42
2023/05/21 08:11:10;;;;;;;7.50;4.60;;;;;;;22.24;52.28;99038.52;435296;1252;98828;-42
2023/05/21 08:21:17;;;;;;;5.50;4.10;;;;;;;22.57;51.37;99040.27;435405;1251;107899;-43
2023/05/21 08:41:36;;;;;;;9.60;3.30;;;;;;;22.92;49.67;99030.31;435432;1254;112038;-46
2023/05/21 09:01:45;;;;;;;7.00;3.40;;;;;;;23.44;49.51;99028.34;435520;1251;99397;-42
2023/05/21 09:11:53;;;;;;;5.90;2.70;;;;;;;23.55;47.73;99028.20;435331;1253;107642;-43
2023/05/21 09:22:00;;;;;;;7.90;3.00;;;;;;;23.43;46.66;99032.66;435341;1251;98387;-45
2023/05/21 09:32:06;;;;;;;11.50;3.00;;;;;;;23.31;45.18;99025.75;435380;1251;111660;-41
2023/05/21 09:42:11;;;;;;;7.20;3.30;;;;;;;23.56;45.51;99019.16;435271;1254;107415;-42
2023/05/21 09:52:22;;;;;;;6.80;3.10;;;;;;;23.65;42.96;99025.98;435250;1253;98925;-43
2023/05/21 10:02:27;;;;;;;4.60;3.20;;;;;;;23.82;43.27;99015.47;435323;1251;107405;-41
2023/05/21 10:12:32;;;;;;;4.70;3.10;;;;;;;23.91;43.15;99010.89;435220;1251;99244;-41
2023/05/21 10:22:36;;;;;;;6.40;3.70;;;;;;;24.17;43.24;98996.02;435385;1251;110852;-40
2023/05/21 10:32:47;;;;;;;5.10;3.50;;;;;;;24.27;43.45;98987.12;435326;1253;108601;-41
2023/05/21 10:43:17;;;;;;;4.50;3.40;;;;;;;24.33;42.50;98980.60;435445;1250;98015;-43
2023/05/21 10:53:24;;;;;;;7.10;3.90;;;;;;;24.57;42.35;98975.73;435441;1253;108735;-42
2023/05/21 11:03:32;;;;;;;5.50;3.30;;;;;;;24.71;42.94;98963.21;435403;1249;99221;-41
2023/05/21 11:23:52;;;;;;;3.30;3.00;;;;;;;24.93;43.27;98953.52;435303;1250;108373;-42
2023/05/21 11:34:11;;;;;;;12.50;4.40;;;;;;;24.92;42.27;98949.05;435413;1252;98018;-42
2023/05/21 11:44:18;;;;;;;8.10;3.30;;;;;;;25.02;42.09;98947.52;435375;1250;108018;-42
2023/05/21 11:54:26;;;;;;;7.70;3.10;;;;;;;25.25;41.91;98940.05;435279;1253;98034;-41
2023/05/21 12:04:30;;;;;;;4.60;3.60;;;;;;;25.34;42.30;98937.91;435555;1250;112088;-42
2023/05/21 12:14:33;;;;;;;5.30;3.80;;;;;;;25.20;41.56;98931.96;435403;1251;108839;-42
2023/05/21 12:24:38;;;;;;;5.10;3.20;;;;;;;25.07;41.54;98924.35;435333;1252;99787;-43
2023/05/21 12:34:44;;;;;;;3.70;3.20;;;;;;;25.25;41.93;98919.73;435374;1250;108111;-42
2023/05/21 12:44:48;;;;;;;6.40;3.30;;;;;;;25.25;41.12;98925.69;435323;1252;98171;-41
2023/05/21 12:54:53;;;;;;;5.00;3.50;;;;;;;25.33;41.48;98914.92;435392;1252;111694;-43
2023/05/21 13:04:59;;;;;;;12.00;3.20;;;;;;;25.39;40.56;98909.86;435343;1251;107726;-44
2023/05/21 13:15:05;;;;;;;4.30;3.50;;;;;;;25.22;39.79;98907.77;435502;1252;98062;-41
2023/05/21 13:25:33;;;;;;;8.90;3.20;;;;;;;25.15;39.76;98902.10;435384;1253;106745;-42
2023/05/21 13:35:37;;;;;;;5.60;3.20;;;;;;;25.00;39.27;98904.98;435389;1251;99161;-43
2023/05/21 13:45:40;;;;;;;8.70;3.30;;;;;;;24.86;38.42;98892.27;435470;1251;111984;-43
2023/05/21 13:55:44;;;;;;;5.00;3.70;;;;;;;25.04;38.33;98891.81;435272;1249;107834;-42
2023/05/21 14:05:52;;;;;;;5.40;3.90;;;;;;;25.05;38.37;98882.81;435432;1251;99010;-42
2023/05/21 14:15:56;;;;;;;3.80;3.40;;;;;;;25.02;38.17;98880.20;435384;1252;107817;-42
2023/05/21 14:26:00;;;;;;;8.10;4.00;;;;;;;24.83;38.38;98876.32;435401;1250;99170;-42
2023/05/21 14:36:03;;;;;;;7.20;3.80;;;;;;;24.81;39.31;98866.92;435492;1249;112103;-43
2023/05/21 14:46:07;;;;;;;5.90;3.60;;;;;;;24.96;39.00;98864.36;435348;1250;108938;-44
2023/05/21 14:56:11;;;;;;;6.40;4.10;;;;;;;24.88;38.74;98853.98;435259;1251;99298;-46
2023/05/21 15:06:18;;;;;;;6.10;3.30;;;;;;;24.49;38.43;98851.81;435418;1253;107608;-43
2023/05/21 15:16:21;;;;;;;9.70;4.00;;;;;;;24.41;39.15;98856.13;435250;1252;99280;-42
2023/05/21 15:26:29;;;;;;;8.30;3.90;;;;;;;24.07;40.20;98866.61;435457;1250;109949;-41
2023/05/21 15:36:33;;;;;;;4.30;3.50;;;;;;;23.74;41.26;98871.27;435305;1250;107541;-42
2023/05/21 15:46:37;;;;;;;4.60;4.10;;;;;;;23.82;41.61;98863.23;435109;1250;376127;-41
2023/05/21 15:56:42;;;;;;;9.00;4.20;;;;;;;23.81;41.55;98859.89;435398;1250;108326;-45
2023/05/21 16:06:46;;;;;;;12.20;4.60;;;;;;;23.65;41.58;98852.92;435566;1250;99238;-41
2023/05/21 16:16:53;;;;;;;5.10;3.40;;;;;;;23.59;41.93;98855.08;435512;1253;111984;-42
2023/05/21 16:26:57;;;;;;;4.10;3.50;;;;;;;23.52;41.75;98850.84;435465;1251;107922;-42
2023/05/21 16:37:01;;;;;;;5.90;3.80;;;;;;;23.31;42.43;98854.00;435689;1250;98005;-41
2023/05/21 16:47:05;;;;;;;5.50;3.90;;;;;;;23.12;42.93;98856.75;435323;1250;108295;-41
2023/05/21 16:57:09;;;;;;;7.50;3.90;;;;;;;22.89;42.87;98858.32;435490;1253;98046;-43
2023/05/21 17:07:14;;;;;;;8.90;3.70;;;;;;;22.64;43.08;98868.08;435370;1249;111117;-42
2023/05/21 17:17:18;;;;;;;7.00;3.30;;;;;;;22.39;43.64;98867.20;435281;1250;106641;-43
2023/05/21 17:27:21;;;;;;;7.30;3.80;;;;;;;22.13;44.01;98868.44;435435;1251;99323;-42
2023/05/21 17:37:25;;;;;;;5.10;3.30;;;;;;;21.89;44.45;98866.98;435363;1251;109356;-42
2023/05/21 17:47:29;;;;;;;6.50;3.10;;;;;;;21.58;44.81;98865.91;435486;1252;97991;-42
2023/05/21 17:57:32;;;;;;;4.30;3.50;;;;;;;21.29;45.15;98866.94;435407;1249;111580;-43
2023/05/21 18:07:36;;;;;;;6.90;3.30;;;;;;;21.02;45.78;98867.16;435258;1252;108599;-42
2023/05/21 18:17:49;;;;;;;5.10;3.20;;;;;;;20.71;46.41;98878.95;435533;1250;99214;-42
2023/05/21 18:27:53;;;;;;;6.80;3.60;;;;;;;20.39;46.98;98884.55;435422;1253;107917;-43
2023/05/21 18:37:59;;;;;;;7.40;3.90;;;;;;;20.09;47.57;98891.18;435576;1250;99276;-43
2023/05/21 18:48:03;;;;;;;6.80;3.60;;;;;;;19.78;48.11;98893.70;435330;1251;113597;-42
2023/05/21 18:58:32;;;;;;;3.10;2.70;;;;;;;19.48;48.43;98894.38;435418;1250;107175;-43
2023/05/21 19:08:35;;;;;;;10.80;3.20;;;;;;;19.20;48.96;98906.27;435367;1253;98602;-42
2023/05/21 19:18:47;;;;;;;5.80;3.60;;;;;;;18.99;49.35;98915.91;435404;1256;108526;-42
2023/05/21 19:38:57;;;;;;;5.90;3.80;;;;;;;18.45;50.14;98936.48;435487;1252;112518;-44
2023/05/21 19:49:00;;;;;;;7.40;4.20;;;;;;;18.22;50.76;98932.98;435170;1253;107670;-42
2023/05/21 19:59:05;;;;;;;9.60;4.40;;;;;;;17.91;51.25;98926.66;435413;1250;99218;-42
2023/05/21 20:19:13;;;;;;;8.50;4.40;;;;;;;17.43;52.40;98904.95;435446;1250;99080;-42
2023/05/21 20:29:18;;;;;;;6.10;3.60;;;;;;;17.27;52.68;98909.44;435448;1250;112977;-42
2023/05/21 20:39:47;;;;;;;9.40;4.50;;;;;;;17.06;53.10;98919.62;435260;1252;108249;-43
2023/05/21 20:49:52;;;;;;;8.70;4.90;;;;;;;16.92;53.45;98921.23;435405;1252;98055;-41
2023/05/21 20:59:56;;;;;;;11.30;4.60;;;;;;;16.70;53.68;98932.80;435466;1252;108592;-43
2023/05/21 21:10:00;;;;;;;6.60;4.70;;;;;;;16.48;54.03;98929.88;435420;1250;97983;-42
2023/05/21 21:20:06;;;;;;;7.90;5.10;;;;;;;16.31;54.29;98937.85;435462;1250;112184;-43
2023/05/21 21:30:14;;;;;;;7.60;5.10;;;;;;;16.15;54.60;98942.09;435292;1250;107169;-41
2023/05/21 21:40:17;;;;;;;9.00;4.90;;;;;;;15.98;54.96;98939.80;435443;1251;99333;-42
2023/05/21 21:50:20;;;;;;;9.60;4.70;;;;;;;15.79;55.24;98934.86;435559;1253;107454;-42
2023/05/21 22:10:36;;;;;;;8.50;4.40;;;;;;;15.49;55.75;98923.84;435283;1256;112073;-43
2023/05/21 22:20:45;;;;;;;7.70;4.10;;;;;;;15.43;55.96;98919.85;435586;1256;107186;-43
2023/05/21 22:30:49;;;;;;;7.10;4.00;;;;;;;15.29;56.10;98918.06;435456;1252;99887;-41
2023/05/21 22:40:52;;;;;;;5.20;3.80;;;;;;;15.19;56.23;98927.04;435498;1256;108536;-42
2023/05/21 22:50:56;;;;;;;8.40;3.80;;;;;;;15.09;56.39;98928.52;435394;1252;99269;-41
2023/05/21 23:01:01;;;;;;;8.10;3.60;;;;;;;14.95;56.63;98922.44;435385;1252;111749;-42
2023/05/21 23:11:04;;;;;;;4.60;3.50;;;;;;;14.83;56.57;98920.48;435362;1260;108066;-41
2023/05/21 23:21:08;;;;;;;4.90;3.70;;;;;;;14.72;56.94;98916.98;435487;1252;97975;-42
2023/05/21 23:31:16;;;;;;;7.10;3.70;;;;;;;14.72;57.07;98912.92;435533;1252;109649;-43
2023/05/21 23:41:21;;;;;;;4.30;3.90;;;;;;;14.60;57.23;98912.55;435369;1252;99336;-41
2023/05/21 23:51:26;;;;;;;6.40;3.70;;;;;;;14.42;57.26;98909.89;435397;1251;111683;-43
